sensor_id;sensor_type;location;lat;lon;timestamp;P1;durP1;ratioP1;P2;durP2;ratioP2
23410;SDS011;11878;51.774;7.220;2023-04-05T00:00:01;9.23;;;3.93;;
23410;SDS011;11878;51.774;7.220;2023-04-05T00:03:08;11.00;;;4.80;;
23410;SDS011;11878;51.774;7.220;2023-04-05T00:06:13;10.47;;;4.73;;
23410;SDS011;11878;51.774;7.220;2023-04-05T00:09:17;17.50;;;5.10;;
23410;SDS011;11878;51.774;7.220;2023-04-05T00:12:20;9.30;;;4.53;;
23410;SDS011;11878;51.774;7.220;2023-04-05T00:15:22;10.67;;;4.57;;
23410;SDS011;11878;51.774;7.220;2023-04-05T00:18:24;10.13;;;5.23;;
23410;SDS011;11878;51.774;7.220;2023-04-05T00:21:26;9.23;;;3.73;;
23410;SDS011;11878;51.774;7.220;2023-04-05T00:24:28;9.73;;;4.97;;
23410;SDS011;11878;51.774;7.220;2023-04-05T00:27:31;10.23;;;4.20;;
23410;SDS011;11878;51.774;7.220;2023-04-05T00:30:32;12.40;;;6.13;;
23410;SDS011;11878;51.774;7.220;2023-04-05T00:33:34;11.67;;;4.30;;
23410;SDS011;11878;51.774;7.220;2023-04-05T00:36:36;8.83;;;4.43;;
23410;SDS011;11878;51.774;7.220;2023-04-05T00:39:38;11.37;;;4.90;;
23410;SDS011;11878;51.774;7.220;2023-04-05T00:42:40;7.30;;;3.70;;
23410;SDS011;11878;51.774;7.220;2023-04-05T00:45:41;8.47;;;4.37;;
23410;SDS011;11878;51.774;7.220;2023-04-05T00:48:43;9.73;;;3.70;;
23410;SDS011;11878;51.774;7.220;2023-04-05T00:51:45;10.67;;;4.20;;
23410;SDS011;11878;51.774;7.220;2023-04-05T00:54:48;5.47;;;3.23;;
23410;SDS011;11878;51.774;7.220;2023-04-05T00:57:52;9.13;;;3.70;;
23410;SDS011;11878;51.774;7.220;2023-04-05T01:04:14;5.77;;;2.97;;
23410;SDS011;11878;51.774;7.220;2023-04-05T01:07:28;4.43;;;2.07;;
23410;SDS011;11878;51.774;7.220;2023-04-05T01:10:38;5.80;;;2.63;;
23410;SDS011;11878;51.774;7.220;2023-04-05T01:13:45;11.10;;;2.73;;
23410;SDS011;11878;51.774;7.220;2023-04-05T01:16:47;7.37;;;2.90;;
23410;SDS011;11878;51.774;7.220;2023-04-05T01:19:53;6.00;;;2.40;;
23410;SDS011;11878;51.774;7.220;2023-04-05T01:23:11;5.00;;;2.90;;
23410;SDS011;11878;51.774;7.220;2023-04-05T01:33:18;5.53;;;2.23;;
23410;SDS011;11878;51.774;7.220;2023-04-05T01:36:18;4.70;;;2.37;;
23410;SDS011;11878;51.774;7.220;2023-04-05T01:39:37;6.40;;;2.80;;
23410;SDS011;11878;51.774;7.220;2023-04-05T01:42:41;4.70;;;2.33;;
23410;SDS011;11878;51.774;7.220;2023-04-05T01:45:46;4.60;;;2.20;;
23410;SDS011;11878;51.774;7.220;2023-04-05T01:48:47;6.13;;;2.87;;
23410;SDS011;11878;51.774;7.220;2023-04-05T01:51:49;4.83;;;2.47;;
23410;SDS011;11878;51.774;7.220;2023-04-05T01:54:51;6.00;;;2.93;;
23410;SDS011;11878;51.774;7.220;2023-04-05T01:57:53;3.93;;;2.07;;
23410;SDS011;11878;51.774;7.220;2023-04-05T02:00:56;6.13;;;2.30;;
23410;SDS011;11878;51.774;7.220;2023-04-05T02:03:58;5.23;;;2.20;;
23410;SDS011;11878;51.774;7.220;2023-04-05T02:07:00;4.67;;;2.67;;
23410;SDS011;11878;51.774;7.220;2023-04-05T02:10:03;6.37;;;2.57;;
23410;SDS011;11878;51.774;7.220;2023-04-05T02:13:05;4.83;;;2.00;;
23410;SDS011;11878;51.774;7.220;2023-04-05T02:16:07;6.60;;;3.00;;
23410;SDS011;11878;51.774;7.220;2023-04-05T02:19:09;12.30;;;3.53;;
23410;SDS011;11878;51.774;7.220;2023-04-05T02:22:11;6.33;;;3.13;;
23410;SDS011;11878;51.774;7.220;2023-04-05T02:25:14;4.73;;;2.37;;
23410;SDS011;11878;51.774;7.220;2023-04-05T02:28:15;7.17;;;3.30;;
23410;SDS011;11878;51.774;7.220;2023-04-05T02:31:17;6.70;;;2.80;;
23410;SDS011;11878;51.774;7.220;2023-04-05T02:34:19;7.47;;;2.67;;
23410;SDS011;11878;51.774;7.220;2023-04-05T02:37:23;6.40;;;3.63;;
23410;SDS011;11878;51.774;7.220;2023-04-05T02:40:26;4.00;;;2.20;;
23410;SDS011;11878;51.774;7.220;2023-04-05T02:48:16;5.33;;;2.00;;
23410;SDS011;11878;51.774;7.220;2023-04-05T02:51:18;6.30;;;2.73;;
23410;SDS011;11878;51.774;7.220;2023-04-05T02:54:20;6.87;;;2.67;;
23410;SDS011;11878;51.774;7.220;2023-04-05T02:57:24;11.87;;;2.83;;
23410;SDS011;11878;51.774;7.220;2023-04-05T03:00:34;9.33;;;2.97;;
23410;SDS011;11878;51.774;7.220;2023-04-05T03:03:36;7.17;;;3.07;;
23410;SDS011;11878;51.774;7.220;2023-04-05T03:06:41;6.23;;;2.70;;
23410;SDS011;11878;51.774;7.220;2023-04-05T03:09:47;6.90;;;2.53;;
23410;SDS011;11878;51.774;7.220;2023-04-05T03:12:52;8.63;;;3.83;;
23410;SDS011;11878;51.774;7.220;2023-04-05T03:15:58;6.37;;;3.37;;
23410;SDS011;11878;51.774;7.220;2023-04-05T03:19:02;6.83;;;2.93;;
23410;SDS011;11878;51.774;7.220;2023-04-05T03:22:09;10.47;;;3.07;;
23410;SDS011;11878;51.774;7.220;2023-04-05T03:25:12;9.07;;;3.57;;
23410;SDS011;11878;51.774;7.220;2023-04-05T03:28:19;6.80;;;2.93;;
23410;SDS011;11878;51.774;7.220;2023-04-05T03:31:25;6.80;;;2.97;;
23410;SDS011;11878;51.774;7.220;2023-04-05T03:34:33;4.53;;;3.07;;
23410;SDS011;11878;51.774;7.220;2023-04-05T03:37:41;5.80;;;2.93;;
23410;SDS011;11878;51.774;7.220;2023-04-05T03:40:43;11.13;;;3.20;;
23410;SDS011;11878;51.774;7.220;2023-04-05T03:43:45;10.00;;;4.20;;
23410;SDS011;11878;51.774;7.220;2023-04-05T03:46:49;4.73;;;3.10;;
23410;SDS011;11878;51.774;7.220;2023-04-05T03:49:53;6.97;;;3.07;;
23410;SDS011;11878;51.774;7.220;2023-04-05T03:52:55;6.43;;;3.17;;
23410;SDS011;11878;51.774;7.220;2023-04-05T03:55:57;8.87;;;3.10;;
23410;SDS011;11878;51.774;7.220;2023-04-05T03:59:12;10.87;;;3.80;;
23410;SDS011;11878;51.774;7.220;2023-04-05T04:02:14;5.27;;;2.60;;
23410;SDS011;11878;51.774;7.220;2023-04-05T04:05:16;5.17;;;2.90;;
23410;SDS011;11878;51.774;7.220;2023-04-05T04:08:21;5.50;;;2.93;;
23410;SDS011;11878;51.774;7.220;2023-04-05T04:11:23;8.93;;;3.73;;
23410;SDS011;11878;51.774;7.220;2023-04-05T04:14:25;8.03;;;3.37;;
23410;SDS011;11878;51.774;7.220;2023-04-05T04:17:46;5.30;;;2.80;;
23410;SDS011;11878;51.774;7.220;2023-04-05T04:21:01;9.87;;;3.50;;
23410;SDS011;11878;51.774;7.220;2023-04-05T04:24:21;7.40;;;3.20;;
23410;SDS011;11878;51.774;7.220;2023-04-05T04:27:58;6.80;;;3.17;;
23410;SDS011;11878;51.774;7.220;2023-04-05T04:31:11;5.67;;;2.93;;
23410;SDS011;11878;51.774;7.220;2023-04-05T04:34:45;9.23;;;2.93;;
23410;SDS011;11878;51.774;7.220;2023-04-05T04:38:07;5.90;;;2.80;;
23410;SDS011;11878;51.774;7.220;2023-04-05T04:41:18;4.30;;;2.63;;
23410;SDS011;11878;51.774;7.220;2023-04-05T04:44:34;7.90;;;3.63;;
23410;SDS011;11878;51.774;7.220;2023-04-05T04:48:08;6.73;;;2.97;;
23410;SDS011;11878;51.774;7.220;2023-04-05T04:51:21;9.53;;;3.10;;
23410;SDS011;11878;51.774;7.220;2023-04-05T04:54:23;9.13;;;3.40;;
23410;SDS011;11878;51.774;7.220;2023-04-05T04:57:25;5.93;;;2.50;;
23410;SDS011;11878;51.774;7.220;2023-04-05T05:00:28;7.47;;;3.03;;
23410;SDS011;11878;51.774;7.220;2023-04-05T05:03:30;7.20;;;3.03;;
23410;SDS011;11878;51.774;7.220;2023-04-05T05:06:35;6.53;;;3.13;;
23410;SDS011;11878;51.774;7.220;2023-04-05T05:09:37;5.90;;;3.00;;
23410;SDS011;11878;51.774;7.220;2023-04-05T05:12:39;11.17;;;2.80;;
23410;SDS011;11878;51.774;7.220;2023-04-05T05:15:42;6.53;;;2.90;;
23410;SDS011;11878;51.774;7.220;2023-04-05T05:18:44;12.53;;;3.13;;
23410;SDS011;11878;51.774;7.220;2023-04-05T05:21:48;6.60;;;2.73;;
23410;SDS011;11878;51.774;7.220;2023-04-05T05:24:50;10.43;;;3.17;;
23410;SDS011;11878;51.774;7.220;2023-04-05T05:27:52;7.50;;;2.80;;
23410;SDS011;11878;51.774;7.220;2023-04-05T05:30:56;6.67;;;3.40;;
23410;SDS011;11878;51.774;7.220;2023-04-05T05:33:58;6.27;;;3.27;;
23410;SDS011;11878;51.774;7.220;2023-04-05T05:37:00;4.83;;;3.40;;
23410;SDS011;11878;51.774;7.220;2023-04-05T05:40:02;4.77;;;2.90;;
23410;SDS011;11878;51.774;7.220;2023-04-05T05:43:05;5.83;;;3.20;;
23410;SDS011;11878;51.774;7.220;2023-04-05T05:46:07;5.57;;;2.73;;
23410;SDS011;11878;51.774;7.220;2023-04-05T05:49:09;6.97;;;3.30;;
23410;SDS011;11878;51.774;7.220;2023-04-05T05:52:10;6.30;;;3.30;;
23410;SDS011;11878;51.774;7.220;2023-04-05T05:55:12;6.70;;;3.90;;
23410;SDS011;11878;51.774;7.220;2023-04-05T05:58:14;5.40;;;3.37;;
23410;SDS011;11878;51.774;7.220;2023-04-05T06:01:16;7.47;;;3.53;;
23410;SDS011;11878;51.774;7.220;2023-04-05T06:04:17;8.00;;;3.57;;
23410;SDS011;11878;51.774;7.220;2023-04-05T06:07:20;7.07;;;3.70;;
23410;SDS011;11878;51.774;7.220;2023-04-05T06:10:22;10.10;;;4.37;;
23410;SDS011;11878;51.774;7.220;2023-04-05T06:13:24;8.47;;;4.00;;
23410;SDS011;11878;51.774;7.220;2023-04-05T06:16:26;8.87;;;4.50;;
23410;SDS011;11878;51.774;7.220;2023-04-05T06:19:29;12.23;;;4.10;;
23410;SDS011;11878;51.774;7.220;2023-04-05T06:22:31;6.60;;;3.90;;
23410;SDS011;11878;51.774;7.220;2023-04-05T06:25:33;7.30;;;3.23;;
23410;SDS011;11878;51.774;7.220;2023-04-05T06:28:35;8.23;;;4.20;;
23410;SDS011;11878;51.774;7.220;2023-04-05T06:31:37;6.73;;;3.70;;
23410;SDS011;11878;51.774;7.220;2023-04-05T06:34:39;7.53;;;4.10;;
23410;SDS011;11878;51.774;7.220;2023-04-05T06:37:41;10.50;;;4.13;;
23410;SDS011;11878;51.774;7.220;2023-04-05T06:40:43;8.13;;;3.93;;
23410;SDS011;11878;51.774;7.220;2023-04-05T06:43:44;10.90;;;5.03;;
23410;SDS011;11878;51.774;7.220;2023-04-05T06:46:46;8.63;;;4.30;;
23410;SDS011;11878;51.774;7.220;2023-04-05T06:49:48;7.37;;;4.10;;
23410;SDS011;11878;51.774;7.220;2023-04-05T06:52:50;7.37;;;4.23;;
23410;SDS011;11878;51.774;7.220;2023-04-05T06:55:55;11.03;;;4.87;;
23410;SDS011;11878;51.774;7.220;2023-04-05T06:58:58;9.13;;;3.93;;
23410;SDS011;11878;51.774;7.220;2023-04-05T07:02:02;10.13;;;3.73;;
23410;SDS011;11878;51.774;7.220;2023-04-05T07:05:04;8.97;;;3.80;;
23410;SDS011;11878;51.774;7.220;2023-04-05T07:08:06;8.17;;;4.87;;
23410;SDS011;11878;51.774;7.220;2023-04-05T07:11:08;7.17;;;3.80;;
23410;SDS011;11878;51.774;7.220;2023-04-05T07:14:09;6.70;;;4.10;;
23410;SDS011;11878;51.774;7.220;2023-04-05T07:17:11;8.47;;;4.50;;
23410;SDS011;11878;51.774;7.220;2023-04-05T07:20:13;6.87;;;4.57;;
23410;SDS011;11878;51.774;7.220;2023-04-05T07:23:16;11.57;;;3.87;;
23410;SDS011;11878;51.774;7.220;2023-04-05T07:26:18;10.03;;;4.50;;
23410;SDS011;11878;51.774;7.220;2023-04-05T07:29:20;8.57;;;4.67;;
23410;SDS011;11878;51.774;7.220;2023-04-05T07:32:22;13.83;;;4.23;;
23410;SDS011;11878;51.774;7.220;2023-04-05T07:35:24;9.97;;;4.40;;
23410;SDS011;11878;51.774;7.220;2023-04-05T07:38:25;10.60;;;4.07;;
23410;SDS011;11878;51.774;7.220;2023-04-05T07:41:29;6.03;;;3.90;;
23410;SDS011;11878;51.774;7.220;2023-04-05T07:44:35;8.27;;;4.40;;
23410;SDS011;11878;51.774;7.220;2023-04-05T07:47:37;6.83;;;3.80;;
23410;SDS011;11878;51.774;7.220;2023-04-05T07:50:39;5.90;;;3.57;;
23410;SDS011;11878;51.774;7.220;2023-04-05T07:53:42;9.57;;;3.60;;
23410;SDS011;11878;51.774;7.220;2023-04-05T07:56:44;8.43;;;3.73;;
23410;SDS011;11878;51.774;7.220;2023-04-05T07:59:47;7.73;;;3.63;;
23410;SDS011;11878;51.774;7.220;2023-04-05T08:02:51;16.07;;;4.03;;
23410;SDS011;11878;51.774;7.220;2023-04-05T08:05:53;8.90;;;3.70;;
23410;SDS011;11878;51.774;7.220;2023-04-05T08:08:55;7.93;;;3.20;;
23410;SDS011;11878;51.774;7.220;2023-04-05T08:11:57;8.53;;;3.47;;
23410;SDS011;11878;51.774;7.220;2023-04-05T08:15:00;8.93;;;3.80;;
23410;SDS011;11878;51.774;7.220;2023-04-05T08:18:01;8.10;;;3.20;;
23410;SDS011;11878;51.774;7.220;2023-04-05T08:21:03;7.13;;;3.13;;
23410;SDS011;11878;51.774;7.220;2023-04-05T08:24:05;5.33;;;2.70;;
23410;SDS011;11878;51.774;7.220;2023-04-05T08:27:07;6.47;;;3.10;;
23410;SDS011;11878;51.774;7.220;2023-04-05T08:30:09;4.20;;;2.67;;
23410;SDS011;11878;51.774;7.220;2023-04-05T08:33:11;8.87;;;2.87;;
23410;SDS011;11878;51.774;7.220;2023-04-05T08:36:14;6.80;;;2.83;;
23410;SDS011;11878;51.774;7.220;2023-04-05T08:39:16;7.57;;;2.80;;
23410;SDS011;11878;51.774;7.220;2023-04-05T08:42:35;12.73;;;2.80;;
23410;SDS011;11878;51.774;7.220;2023-04-05T08:45:43;6.70;;;3.30;;
23410;SDS011;11878;51.774;7.220;2023-04-05T08:48:48;6.93;;;3.67;;
23410;SDS011;11878;51.774;7.220;2023-04-05T08:51:51;12.03;;;3.80;;
23410;SDS011;11878;51.774;7.220;2023-04-05T08:54:54;11.53;;;4.00;;
23410;SDS011;11878;51.774;7.220;2023-04-05T08:57:56;6.47;;;3.97;;
23410;SDS011;11878;51.774;7.220;2023-04-05T09:01:01;8.27;;;3.83;;
23410;SDS011;11878;51.774;7.220;2023-04-05T09:04:06;6.57;;;3.17;;
23410;SDS011;11878;51.774;7.220;2023-04-05T09:07:14;7.13;;;3.23;;
23410;SDS011;11878;51.774;7.220;2023-04-05T09:10:17;6.27;;;3.20;;
23410;SDS011;11878;51.774;7.220;2023-04-05T09:13:21;6.40;;;3.07;;
23410;SDS011;11878;51.774;7.220;2023-04-05T09:16:22;6.87;;;3.13;;
23410;SDS011;11878;51.774;7.220;2023-04-05T09:19:26;8.00;;;3.00;;
23410;SDS011;11878;51.774;7.220;2023-04-05T09:22:27;10.10;;;4.30;;
23410;SDS011;11878;51.774;7.220;2023-04-05T09:25:36;9.13;;;3.30;;
23410;SDS011;11878;51.774;7.220;2023-04-05T09:28:39;7.43;;;2.83;;
23410;SDS011;11878;51.774;7.220;2023-04-05T09:31:45;7.80;;;3.07;;
23410;SDS011;11878;51.774;7.220;2023-04-05T09:34:47;9.03;;;2.97;;
23410;SDS011;11878;51.774;7.220;2023-04-05T09:38:00;5.37;;;3.10;;
23410;SDS011;11878;51.774;7.220;2023-04-05T09:41:06;8.37;;;3.30;;
23410;SDS011;11878;51.774;7.220;2023-04-05T09:44:10;6.57;;;2.73;;
23410;SDS011;11878;51.774;7.220;2023-04-05T09:47:16;5.77;;;3.30;;
23410;SDS011;11878;51.774;7.220;2023-04-05T09:50:19;7.30;;;3.63;;
23410;SDS011;11878;51.774;7.220;2023-04-05T09:53:21;11.57;;;3.53;;
23410;SDS011;11878;51.774;7.220;2023-04-05T09:56:24;5.10;;;2.60;;
23410;SDS011;11878;51.774;7.220;2023-04-05T09:59:27;5.63;;;2.70;;
23410;SDS011;11878;51.774;7.220;2023-04-05T10:02:39;3.60;;;2.90;;
23410;SDS011;11878;51.774;7.220;2023-04-05T10:05:43;7.23;;;3.20;;
23410;SDS011;11878;51.774;7.220;2023-04-05T10:08:46;5.73;;;3.00;;
23410;SDS011;11878;51.774;7.220;2023-04-05T10:11:49;9.20;;;3.13;;
23410;SDS011;11878;51.774;7.220;2023-04-05T10:14:56;6.37;;;3.60;;
23410;SDS011;11878;51.774;7.220;2023-04-05T10:18:09;7.43;;;3.30;;
23410;SDS011;11878;51.774;7.220;2023-04-05T10:21:22;8.77;;;3.33;;
23410;SDS011;11878;51.774;7.220;2023-04-05T10:24:39;4.97;;;2.40;;
23410;SDS011;11878;51.774;7.220;2023-04-05T10:28:11;6.43;;;3.17;;
23410;SDS011;11878;51.774;7.220;2023-04-05T10:31:58;6.93;;;2.57;;
23410;SDS011;11878;51.774;7.220;2023-04-05T10:35:09;7.30;;;3.37;;
23410;SDS011;11878;51.774;7.220;2023-04-05T10:38:25;4.53;;;2.73;;
23410;SDS011;11878;51.774;7.220;2023-04-05T10:41:35;5.23;;;3.10;;
23410;SDS011;11878;51.774;7.220;2023-04-05T10:44:52;6.53;;;2.93;;
23410;SDS011;11878;51.774;7.220;2023-04-05T10:48:45;4.73;;;2.80;;
23410;SDS011;11878;51.774;7.220;2023-04-05T10:51:32;3.57;;;2.47;;
23410;SDS011;11878;51.774;7.220;2023-04-05T10:54:35;4.40;;;2.67;;
23410;SDS011;11878;51.774;7.220;2023-04-05T10:57:38;4.97;;;2.70;;
23410;SDS011;11878;51.774;7.220;2023-04-05T11:00:40;3.97;;;2.20;;
23410;SDS011;11878;51.774;7.220;2023-04-05T11:06:47;4.23;;;2.23;;
23410;SDS011;11878;51.774;7.220;2023-04-05T11:10:15;5.50;;;3.03;;
23410;SDS011;11878;51.774;7.220;2023-04-05T11:13:19;4.80;;;2.60;;
23410;SDS011;11878;51.774;7.220;2023-04-05T11:16:22;3.57;;;2.50;;
23410;SDS011;11878;51.774;7.220;2023-04-05T11:19:49;6.80;;;2.80;;
23410;SDS011;11878;51.774;7.220;2023-04-05T11:22:57;4.27;;;2.93;;
23410;SDS011;11878;51.774;7.220;2023-04-05T11:26:03;4.83;;;2.70;;
23410;SDS011;11878;51.774;7.220;2023-04-05T11:29:08;3.87;;;2.70;;
23410;SDS011;11878;51.774;7.220;2023-04-05T11:32:13;4.37;;;2.50;;
23410;SDS011;11878;51.774;7.220;2023-04-05T11:35:31;7.13;;;3.07;;
23410;SDS011;11878;51.774;7.220;2023-04-05T11:38:35;6.57;;;2.80;;
23410;SDS011;11878;51.774;7.220;2023-04-05T11:41:38;5.67;;;3.00;;
23410;SDS011;11878;51.774;7.220;2023-04-05T11:44:41;4.60;;;2.90;;
23410;SDS011;11878;51.774;7.220;2023-04-05T11:47:48;5.50;;;2.47;;
23410;SDS011;11878;51.774;7.220;2023-04-05T11:50:51;7.43;;;3.20;;
23410;SDS011;11878;51.774;7.220;2023-04-05T11:53:55;5.53;;;2.70;;
23410;SDS011;11878;51.774;7.220;2023-04-05T11:57:00;7.00;;;3.30;;
23410;SDS011;11878;51.774;7.220;2023-04-05T12:00:02;4.03;;;2.63;;
23410;SDS011;11878;51.774;7.220;2023-04-05T12:03:14;5.90;;;2.97;;
23410;SDS011;11878;51.774;7.220;2023-04-05T12:06:20;4.20;;;2.93;;
23410;SDS011;11878;51.774;7.220;2023-04-05T12:09:25;4.93;;;3.07;;
23410;SDS011;11878;51.774;7.220;2023-04-05T12:15:42;4.70;;;3.17;;
23410;SDS011;11878;51.774;7.220;2023-04-05T12:18:44;6.10;;;2.87;;
23410;SDS011;11878;51.774;7.220;2023-04-05T12:22:02;3.37;;;2.57;;
23410;SDS011;11878;51.774;7.220;2023-04-05T12:25:04;4.17;;;2.50;;
23410;SDS011;11878;51.774;7.220;2023-04-05T12:28:07;11.80;;;2.83;;
23410;SDS011;11878;51.774;7.220;2023-04-05T12:31:09;7.43;;;2.43;;
23410;SDS011;11878;51.774;7.220;2023-04-05T12:34:13;6.93;;;3.00;;
23410;SDS011;11878;51.774;7.220;2023-04-05T12:37:19;7.07;;;3.20;;
23410;SDS011;11878;51.774;7.220;2023-04-05T12:40:22;5.70;;;2.97;;
23410;SDS011;11878;51.774;7.220;2023-04-05T12:43:25;4.07;;;3.00;;
23410;SDS011;11878;51.774;7.220;2023-04-05T12:46:39;12.93;;;3.23;;
23410;SDS011;11878;51.774;7.220;2023-04-05T12:49:45;5.07;;;3.03;;
23410;SDS011;11878;51.774;7.220;2023-04-05T12:53:04;5.70;;;3.27;;
23410;SDS011;11878;51.774;7.220;2023-04-05T12:56:07;5.57;;;3.07;;
23410;SDS011;11878;51.774;7.220;2023-04-05T12:59:11;5.23;;;2.83;;
23410;SDS011;11878;51.774;7.220;2023-04-05T13:02:13;5.30;;;3.07;;
23410;SDS011;11878;51.774;7.220;2023-04-05T13:05:23;6.87;;;3.47;;
23410;SDS011;11878;51.774;7.220;2023-04-05T13:08:38;6.30;;;3.20;;
23410;SDS011;11878;51.774;7.220;2023-04-05T13:11:40;5.77;;;3.10;;
23410;SDS011;11878;51.774;7.220;2023-04-05T13:14:43;6.37;;;3.60;;
23410;SDS011;11878;51.774;7.220;2023-04-05T13:17:45;5.37;;;2.87;;
23410;SDS011;11878;51.774;7.220;2023-04-05T13:20:50;4.68;;;3.08;;
23410;SDS011;11878;51.774;7.220;2023-04-05T13:23:55;4.18;;;2.65;;
23410;SDS011;11878;51.774;7.220;2023-04-05T13:26:57;5.75;;;2.72;;
23410;SDS011;11878;51.774;7.220;2023-04-05T13:30:01;7.60;;;3.28;;
23410;SDS011;11878;51.774;7.220;2023-04-05T13:33:05;7.40;;;3.28;;
23410;SDS011;11878;51.774;7.220;2023-04-05T13:36:08;7.80;;;3.63;;
23410;SDS011;11878;51.774;7.220;2023-04-05T13:39:11;7.65;;;2.88;;
23410;SDS011;11878;51.774;7.220;2023-04-05T13:42:14;6.65;;;3.25;;
23410;SDS011;11878;51.774;7.220;2023-04-05T13:45:16;5.47;;;2.92;;
23410;SDS011;11878;51.774;7.220;2023-04-05T13:48:22;5.50;;;2.97;;
23410;SDS011;11878;51.774;7.220;2023-04-05T13:51:54;6.85;;;3.17;;
23410;SDS011;11878;51.774;7.220;2023-04-05T13:54:56;5.22;;;3.03;;
23410;SDS011;11878;51.774;7.220;2023-04-05T13:58:06;6.15;;;3.13;;
23410;SDS011;11878;51.774;7.220;2023-04-05T14:01:09;4.63;;;3.20;;
23410;SDS011;11878;51.774;7.220;2023-04-05T14:04:17;6.35;;;2.92;;
23410;SDS011;11878;51.774;7.220;2023-04-05T14:07:31;10.80;;;2.90;;
23410;SDS011;11878;51.774;7.220;2023-04-05T14:10:34;5.65;;;2.92;;
23410;SDS011;11878;51.774;7.220;2023-04-05T14:13:36;5.18;;;2.78;;
23410;SDS011;11878;51.774;7.220;2023-04-05T14:16:38;9.10;;;2.78;;
23410;SDS011;11878;51.774;7.220;2023-04-05T14:19:40;5.07;;;3.20;;
23410;SDS011;11878;51.774;7.220;2023-04-05T14:22:42;5.90;;;2.80;;
23410;SDS011;11878;51.774;7.220;2023-04-05T14:25:44;5.47;;;3.08;;
23410;SDS011;11878;51.774;7.220;2023-04-05T14:28:50;5.43;;;3.45;;
23410;SDS011;11878;51.774;7.220;2023-04-05T14:31:53;4.53;;;2.80;;
23410;SDS011;11878;51.774;7.220;2023-04-05T14:34:56;5.78;;;3.17;;
23410;SDS011;11878;51.774;7.220;2023-04-05T14:38:01;8.85;;;2.72;;
23410;SDS011;11878;51.774;7.220;2023-04-05T14:41:03;5.03;;;3.47;;
23410;SDS011;11878;51.774;7.220;2023-04-05T14:44:06;6.03;;;3.63;;
23410;SDS011;11878;51.774;7.220;2023-04-05T14:47:08;7.60;;;3.45;;
23410;SDS011;11878;51.774;7.220;2023-04-05T14:50:10;3.45;;;2.22;;
23410;SDS011;11878;51.774;7.220;2023-04-05T14:53:13;4.53;;;2.85;;
23410;SDS011;11878;51.774;7.220;2023-04-05T14:56:18;6.82;;;3.35;;
23410;SDS011;11878;51.774;7.220;2023-04-05T14:59:21;4.53;;;2.80;;
23410;SDS011;11878;51.774;7.220;2023-04-05T15:02:26;5.10;;;2.67;;
23410;SDS011;11878;51.774;7.220;2023-04-05T15:05:29;6.75;;;2.72;;
23410;SDS011;11878;51.774;7.220;2023-04-05T15:08:32;4.60;;;2.70;;
23410;SDS011;11878;51.774;7.220;2023-04-05T15:11:37;6.13;;;2.83;;
23410;SDS011;11878;51.774;7.220;2023-04-05T15:14:40;3.75;;;2.60;;
23410;SDS011;11878;51.774;7.220;2023-04-05T15:17:46;4.97;;;3.03;;
23410;SDS011;11878;51.774;7.220;2023-04-05T15:20:48;5.88;;;2.92;;
23410;SDS011;11878;51.774;7.220;2023-04-05T15:23:50;8.20;;;3.85;;
23410;SDS011;11878;51.774;7.220;2023-04-05T15:26:52;4.22;;;2.45;;
23410;SDS011;11878;51.774;7.220;2023-04-05T15:30:02;4.55;;;2.72;;
23410;SDS011;11878;51.774;7.220;2023-04-05T15:33:24;4.15;;;2.55;;
23410;SDS011;11878;51.774;7.220;2023-04-05T15:36:29;4.07;;;2.83;;
23410;SDS011;11878;51.774;7.220;2023-04-05T15:39:31;4.95;;;3.03;;
23410;SDS011;11878;51.774;7.220;2023-04-05T15:42:34;6.05;;;3.70;;
23410;SDS011;11878;51.774;7.220;2023-04-05T15:45:36;5.97;;;3.38;;
23410;SDS011;11878;51.774;7.220;2023-04-05T15:48:41;4.47;;;3.08;;
23410;SDS011;11878;51.774;7.220;2023-04-05T15:51:44;4.35;;;3.03;;
23410;SDS011;11878;51.774;7.220;2023-04-05T15:54:50;7.10;;;3.17;;
23410;SDS011;11878;51.774;7.220;2023-04-05T15:57:54;4.25;;;2.90;;
23410;SDS011;11878;51.774;7.220;2023-04-05T16:00:56;5.40;;;2.97;;
23410;SDS011;11878;51.774;7.220;2023-04-05T16:03:58;4.72;;;3.15;;
23410;SDS011;11878;51.774;7.220;2023-04-05T16:07:04;7.78;;;3.38;;
23410;SDS011;11878;51.774;7.220;2023-04-05T16:10:08;6.38;;;3.42;;
23410;SDS011;11878;51.774;7.220;2023-04-05T16:13:10;4.53;;;2.60;;
23410;SDS011;11878;51.774;7.220;2023-04-05T16:16:12;6.85;;;2.85;;
23410;SDS011;11878;51.774;7.220;2023-04-05T16:19:28;6.40;;;3.10;;
23410;SDS011;11878;51.774;7.220;2023-04-05T16:22:30;5.72;;;2.75;;
23410;SDS011;11878;51.774;7.220;2023-04-05T16:25:32;5.32;;;3.00;;
23410;SDS011;11878;51.774;7.220;2023-04-05T16:28:34;5.32;;;3.22;;
23410;SDS011;11878;51.774;7.220;2023-04-05T16:31:36;7.85;;;3.38;;
23410;SDS011;11878;51.774;7.220;2023-04-05T16:34:38;5.53;;;3.05;;
23410;SDS011;11878;51.774;7.220;2023-04-05T16:37:41;6.15;;;3.13;;
23410;SDS011;11878;51.774;7.220;2023-04-05T16:40:44;13.50;;;4.93;;
23410;SDS011;11878;51.774;7.220;2023-04-05T16:43:46;8.82;;;3.95;;
23410;SDS011;11878;51.774;7.220;2023-04-05T16:46:48;9.05;;;3.60;;
23410;SDS011;11878;51.774;7.220;2023-04-05T16:49:50;13.73;;;5.20;;
23410;SDS011;11878;51.774;7.220;2023-04-05T16:52:52;7.28;;;3.80;;
23410;SDS011;11878;51.774;7.220;2023-04-05T16:55:54;8.57;;;4.57;;
23410;SDS011;11878;51.774;7.220;2023-04-05T16:58:57;9.17;;;4.30;;
23410;SDS011;11878;51.774;7.220;2023-04-05T17:01:59;5.90;;;2.80;;
23410;SDS011;11878;51.774;7.220;2023-04-05T17:05:01;6.53;;;3.50;;
23410;SDS011;11878;51.774;7.220;2023-04-05T17:08:03;6.83;;;3.07;;
23410;SDS011;11878;51.774;7.220;2023-04-05T17:11:05;6.13;;;3.63;;
23410;SDS011;11878;51.774;7.220;2023-04-05T17:14:07;6.03;;;3.40;;
23410;SDS011;11878;51.774;7.220;2023-04-05T17:17:09;5.77;;;3.27;;
23410;SDS011;11878;51.774;7.220;2023-04-05T17:20:11;9.77;;;4.47;;
23410;SDS011;11878;51.774;7.220;2023-04-05T17:23:14;8.53;;;3.70;;
23410;SDS011;11878;51.774;7.220;2023-04-05T17:26:16;6.07;;;3.20;;
23410;SDS011;11878;51.774;7.220;2023-04-05T17:29:18;8.00;;;3.87;;
23410;SDS011;11878;51.774;7.220;2023-04-05T17:32:20;5.30;;;2.90;;
23410;SDS011;11878;51.774;7.220;2023-04-05T17:35:22;5.27;;;3.57;;
23410;SDS011;11878;51.774;7.220;2023-04-05T17:38:24;5.30;;;3.43;;
23410;SDS011;11878;51.774;7.220;2023-04-05T17:41:29;5.90;;;3.23;;
23410;SDS011;11878;51.774;7.220;2023-04-05T17:44:31;6.90;;;3.67;;
23410;SDS011;11878;51.774;7.220;2023-04-05T17:47:33;7.93;;;3.87;;
23410;SDS011;11878;51.774;7.220;2023-04-05T17:50:36;5.20;;;3.13;;
23410;SDS011;11878;51.774;7.220;2023-04-05T17:53:38;5.90;;;3.17;;
23410;SDS011;11878;51.774;7.220;2023-04-05T17:56:40;5.23;;;3.17;;
23410;SDS011;11878;51.774;7.220;2023-04-05T17:59:42;5.43;;;3.17;;
23410;SDS011;11878;51.774;7.220;2023-04-05T18:02:44;6.53;;;3.57;;
23410;SDS011;11878;51.774;7.220;2023-04-05T18:05:50;8.20;;;4.30;;
23410;SDS011;11878;51.774;7.220;2023-04-05T18:08:55;6.20;;;4.27;;
23410;SDS011;11878;51.774;7.220;2023-04-05T18:11:57;6.10;;;3.80;;
23410;SDS011;11878;51.774;7.220;2023-04-05T18:15:00;11.27;;;4.30;;
23410;SDS011;11878;51.774;7.220;2023-04-05T18:18:02;11.07;;;4.93;;
23410;SDS011;11878;51.774;7.220;2023-04-05T18:21:04;9.47;;;5.40;;
23410;SDS011;11878;51.774;7.220;2023-04-05T18:24:06;9.63;;;5.30;;
23410;SDS011;11878;51.774;7.220;2023-04-05T18:27:08;10.37;;;5.17;;
23410;SDS011;11878;51.774;7.220;2023-04-05T18:30:12;12.53;;;5.87;;
23410;SDS011;11878;51.774;7.220;2023-04-05T18:33:14;11.27;;;5.07;;
23410;SDS011;11878;51.774;7.220;2023-04-05T18:36:16;9.37;;;5.97;;
23410;SDS011;11878;51.774;7.220;2023-04-05T18:39:19;10.83;;;6.17;;
23410;SDS011;11878;51.774;7.220;2023-04-05T18:42:21;8.90;;;5.53;;
23410;SDS011;11878;51.774;7.220;2023-04-05T18:45:23;8.87;;;4.97;;
23410;SDS011;11878;51.774;7.220;2023-04-05T18:48:25;10.93;;;5.03;;
23410;SDS011;11878;51.774;7.220;2023-04-05T18:51:28;8.93;;;4.43;;